createdAt,value
2022-09-06T00:01:16.865Z,2.00
2022-09-06T00:03:45.191Z,2.50
2022-09-06T00:06:16.061Z,2.20
2022-09-06T00:08:45.316Z,2.80
2022-09-06T00:11:14.108Z,2.30
2022-09-06T00:13:43.870Z,2.40
2022-09-06T00:16:13.771Z,2.83
2022-09-06T00:18:42.202Z,2.55
2022-09-06T00:21:15.892Z,2.22
2022-09-06T00:23:43.918Z,2.78
2022-09-06T00:26:12.024Z,2.25
2022-09-06T00:28:41.040Z,2.80
2022-09-06T00:31:11.692Z,2.83
2022-09-06T00:33:39.915Z,2.58
2022-09-06T00:36:08.480Z,2.33
2022-09-06T00:38:36.833Z,2.55
2022-09-06T00:41:05.076Z,2.08
2022-09-06T00:43:33.188Z,2.40
2022-09-06T00:46:02.112Z,2.38
2022-09-06T00:48:32.006Z,2.33
2022-09-06T00:51:02.561Z,2.28
2022-09-06T00:53:32.780Z,2.63
2022-09-06T00:56:00.962Z,2.60
2022-09-06T00:58:29.204Z,2.58
2022-09-06T01:00:57.135Z,2.50
2022-09-06T01:03:26.428Z,2.42
2022-09-06T01:06:04.971Z,1.90
2022-09-06T01:08:42.541Z,2.35
2022-09-06T01:11:32.098Z,2.83
2022-09-06T01:14:16.170Z,2.50
2022-09-06T01:16:52.115Z,2.40
2022-09-06T01:19:45.358Z,3.55
2022-09-06T01:22:34.456Z,2.22
2022-09-06T01:25:18.896Z,2.65
2022-09-06T01:28:17.733Z,2.50
2022-09-06T01:30:51.719Z,2.70
2022-09-06T01:33:29.883Z,2.55
2022-09-06T01:36:02.430Z,3.50
2022-09-06T01:38:30.674Z,3.20
2022-09-06T01:40:58.448Z,3.30
2022-09-06T01:43:31.312Z,3.08
2022-09-06T01:46:05.108Z,2.85
2022-09-06T01:48:47.458Z,2.60
2022-09-06T01:51:25.515Z,3.05
2022-09-06T01:54:09.551Z,2.28
2022-09-06T01:56:46.528Z,2.40
2022-09-06T01:59:35.140Z,2.70
2022-09-06T02:02:08.578Z,2.92
2022-09-06T02:04:44.441Z,2.63
2022-09-06T02:07:19.810Z,2.88
2022-09-06T02:09:51.922Z,2.70
2022-09-06T02:12:21.707Z,3.17
2022-09-06T02:14:56.437Z,2.35
2022-09-06T02:17:29.110Z,2.50
2022-09-06T02:20:02.388Z,2.58
2022-09-06T02:22:34.451Z,2.83
2022-09-06T02:25:03.459Z,3.10
2022-09-06T02:27:31.320Z,2.72
2022-09-06T02:30:02.836Z,2.97
2022-09-06T02:32:32.348Z,3.25
2022-09-06T02:35:00.322Z,3.40
2022-09-06T02:37:28.530Z,2.72
2022-09-06T02:39:56.914Z,3.65
2022-09-06T02:42:25.807Z,3.47
2022-09-06T02:44:53.729Z,4.07
2022-09-06T02:47:22.896Z,3.15
2022-09-06T02:49:50.685Z,3.22
2022-09-06T02:52:18.434Z,3.50
2022-09-06T02:54:46.298Z,3.58
2022-09-06T02:57:14.092Z,3.40
2022-09-06T02:59:41.875Z,3.38
2022-09-06T03:02:09.718Z,2.80
2022-09-06T03:04:38.910Z,3.40
2022-09-06T03:07:06.785Z,3.63
2022-09-06T03:09:35.072Z,3.40
2022-09-06T03:12:02.984Z,3.55
2022-09-06T03:14:30.765Z,3.45
2022-09-06T03:16:58.664Z,3.17
2022-09-06T03:19:26.464Z,4.00
2022-09-06T03:21:55.696Z,3.47
2022-09-06T03:24:23.474Z,3.25
2022-09-06T03:26:51.799Z,3.38
2022-09-06T03:29:19.560Z,4.05
2022-09-06T03:31:47.357Z,3.92
2022-09-06T03:34:15.191Z,3.78
2022-09-06T03:36:43.003Z,3.17
2022-09-06T03:39:12.157Z,3.08
2022-09-06T03:41:39.936Z,3.30
2022-09-06T03:44:07.731Z,3.03
2022-09-06T03:46:35.502Z,2.80
2022-09-06T03:49:03.372Z,3.17
2022-09-06T03:51:31.137Z,2.85
2022-09-06T03:53:58.937Z,2.78
2022-09-06T03:56:28.291Z,2.72
2022-09-06T03:58:56.066Z,2.72
2022-09-06T04:01:24.004Z,2.38
2022-09-06T04:03:52.146Z,3.55
2022-09-06T04:06:20.073Z,3.60
2022-09-06T04:08:47.870Z,3.80
2022-09-06T04:11:17.419Z,3.67
2022-09-06T04:13:46.804Z,3.63
2022-09-06T04:16:14.581Z,3.00
2022-09-06T04:18:42.504Z,3.35
2022-09-06T04:21:10.328Z,3.58
2022-09-06T04:23:40.046Z,3.65
2022-09-06T04:26:08.146Z,3.60
2022-09-06T04:28:36.002Z,4.78
2022-09-06T04:31:05.876Z,3.75
2022-09-06T04:33:35.360Z,3.47
2022-09-06T04:36:05.631Z,3.80
2022-09-06T04:38:37.403Z,4.20
2022-09-06T04:41:06.044Z,3.95
2022-09-06T04:43:34.099Z,4.28
2022-09-06T04:46:06.550Z,4.50
2022-09-06T04:48:34.390Z,3.90
2022-09-06T04:51:02.223Z,3.67
2022-09-06T04:53:29.995Z,3.85
2022-09-06T04:55:58.440Z,4.55
2022-09-06T04:58:26.827Z,4.65
2022-09-06T05:00:54.830Z,4.15
2022-09-06T05:03:24.028Z,4.75
2022-09-06T05:05:51.888Z,4.30
2022-09-06T05:08:19.861Z,4.72
2022-09-06T05:10:47.684Z,4.65
2022-09-06T05:13:15.461Z,4.40
2022-09-06T05:15:43.281Z,4.80
2022-09-06T05:18:15.963Z,4.55
2022-09-06T05:20:45.341Z,5.75
2022-09-06T05:23:13.164Z,4.82
2022-09-06T05:25:40.942Z,4.10
2022-09-06T05:28:08.760Z,3.85
2022-09-06T05:30:36.541Z,4.32
2022-09-06T05:33:04.465Z,3.80
2022-09-06T05:35:32.271Z,4.40
2022-09-06T05:38:01.412Z,3.80
2022-09-06T05:40:29.307Z,4.70
2022-09-06T05:42:57.272Z,4.32
2022-09-06T05:45:25.163Z,4.40
2022-09-06T05:47:53.029Z,5.63
2022-09-06T05:50:20.844Z,4.20
2022-09-06T05:52:48.637Z,5.05
2022-09-06T05:55:17.871Z,4.75
2022-09-06T05:57:45.636Z,4.43
2022-09-06T06:00:14.699Z,4.88
2022-09-06T06:02:42.632Z,4.22
2022-09-06T06:05:10.558Z,4.60
2022-09-06T06:07:38.364Z,4.72
2022-09-06T06:10:07.122Z,5.15
2022-09-06T06:12:36.274Z,4.38
2022-09-06T06:15:05.580Z,4.60
2022-09-06T06:17:33.371Z,4.50
2022-09-06T06:20:01.163Z,4.35
2022-09-06T06:22:28.925Z,4.30
2022-09-06T06:24:56.893Z,5.00
2022-09-06T06:27:24.720Z,5.13
2022-09-06T06:29:53.832Z,4.85
2022-09-06T06:32:21.633Z,4.75
2022-09-06T06:34:49.407Z,4.88
2022-09-06T06:37:17.198Z,5.05
2022-09-06T06:39:45.000Z,4.78
2022-09-06T06:42:13.055Z,4.88
2022-09-06T06:44:40.906Z,4.78
2022-09-06T06:47:10.091Z,4.75
2022-09-06T06:49:37.855Z,3.78
2022-09-06T06:52:05.680Z,4.88
2022-09-06T06:54:33.455Z,4.35
2022-09-06T06:57:01.495Z,4.05
2022-09-06T06:59:29.269Z,4.20
2022-09-06T07:01:57.286Z,4.15
2022-09-06T07:04:26.499Z,3.88
2022-09-06T07:12:31.836Z,3.40
2022-09-06T07:14:59.629Z,3.35
2022-09-06T07:17:27.409Z,3.75
2022-09-06T07:22:40.155Z,3.30
2022-09-06T07:25:09.276Z,3.78
2022-09-06T07:27:52.543Z,3.28
2022-09-06T07:30:20.871Z,3.40
2022-09-06T07:32:48.760Z,3.17
2022-09-06T07:35:20.240Z,3.42
2022-09-06T07:37:58.159Z,3.35
2022-09-06T07:40:26.936Z,3.03
2022-09-06T07:42:56.993Z,3.15
2022-09-06T07:45:24.915Z,3.25
2022-09-06T07:50:47.831Z,3.67
2022-09-06T07:53:24.578Z,3.10
2022-09-06T07:55:58.305Z,3.42
2022-09-06T07:58:26.093Z,3.22
2022-09-06T08:00:54.061Z,3.53
2022-09-06T08:03:22.035Z,3.30
2022-09-06T08:11:23.477Z,3.40
2022-09-06T08:13:52.551Z,3.70
2022-09-06T08:16:20.424Z,2.50
2022-09-06T08:18:52.381Z,3.00
2022-09-06T08:21:23.484Z,3.08
2022-09-06T08:23:53.207Z,2.85
2022-09-06T08:26:22.769Z,3.17
2022-09-06T08:28:54.905Z,3.38
2022-09-06T08:31:22.804Z,2.70
2022-09-06T08:33:50.636Z,2.70
2022-09-06T08:36:18.452Z,2.88
2022-09-06T08:38:47.698Z,2.80
2022-09-06T08:41:25.144Z,2.50
2022-09-06T08:46:48.925Z,2.63
2022-09-06T08:49:16.830Z,2.08
2022-09-06T08:52:26.230Z,3.10
2022-09-06T08:55:03.203Z,3.35
2022-09-06T08:57:51.605Z,3.80
2022-09-06T09:00:23.011Z,3.53
2022-09-06T09:02:55.102Z,3.15
2022-09-06T09:05:27.161Z,2.30
2022-09-06T09:08:04.355Z,3.10
2022-09-06T09:10:43.347Z,2.30
2022-09-06T09:13:21.309Z,2.33
2022-09-06T09:15:49.126Z,2.55
2022-09-06T09:18:21.691Z,2.40
2022-09-06T09:20:49.521Z,2.10
2022-09-06T09:23:17.476Z,2.40
2022-09-06T09:25:48.101Z,2.40
2022-09-06T09:28:19.867Z,2.20
2022-09-06T09:30:50.504Z,2.08
2022-09-06T09:33:31.157Z,2.10
2022-09-06T09:36:01.994Z,2.20
2022-09-06T09:38:32.262Z,2.20
2022-09-06T09:41:04.305Z,2.35
2022-09-06T09:43:34.297Z,2.45
2022-09-06T09:46:17.617Z,2.30
2022-09-06T09:49:01.147Z,2.65
2022-09-06T09:51:30.016Z,2.13
2022-09-06T09:54:00.153Z,2.80
2022-09-06T09:56:35.100Z,2.13
2022-09-06T09:59:03.668Z,2.63
2022-09-06T10:01:33.901Z,2.17
2022-09-06T10:07:08.148Z,2.50
2022-09-06T10:09:38.636Z,3.13
2022-09-06T10:12:08.060Z,3.20
2022-09-06T10:14:47.037Z,2.42
2022-09-06T10:17:31.082Z,2.70
2022-09-06T10:20:03.420Z,2.47
2022-09-06T10:22:32.946Z,2.83
2022-09-06T10:25:26.075Z,2.80
2022-09-06T10:28:34.359Z,2.88
2022-09-06T10:31:34.252Z,2.55
2022-09-06T10:34:11.498Z,2.88
2022-09-06T10:36:44.141Z,2.63
2022-09-06T10:39:36.270Z,2.63
2022-09-06T10:42:14.968Z,3.20
2022-09-06T10:45:08.185Z,3.03
2022-09-06T10:47:50.877Z,2.78
2022-09-06T10:50:19.267Z,2.53
2022-09-06T10:52:51.825Z,2.45
2022-09-06T10:55:20.220Z,2.83
2022-09-06T11:00:46.662Z,2.88
2022-09-06T11:06:14.024Z,3.33
2022-09-06T11:08:48.290Z,3.03
2022-09-06T11:11:23.097Z,2.75
2022-09-06T11:13:50.893Z,2.75
2022-09-06T11:16:26.346Z,2.83
2022-09-06T11:18:58.304Z,2.85
2022-09-06T11:22:13.302Z,2.50
2022-09-06T11:25:07.111Z,2.80
2022-09-06T11:27:38.547Z,2.60
2022-09-06T11:30:07.579Z,2.50
2022-09-06T11:32:40.788Z,2.83
2022-09-06T11:35:11.369Z,2.60
2022-09-06T11:37:42.847Z,2.67
2022-09-06T11:43:16.400Z,2.20
2022-09-06T11:45:47.685Z,2.35
2022-09-06T11:48:44.669Z,2.47
2022-09-06T11:51:12.458Z,2.72
2022-09-06T11:54:10.044Z,2.78
2022-09-06T11:56:43.818Z,2.75
2022-09-06T11:59:28.260Z,2.92
2022-09-06T12:02:04.044Z,2.47
2022-09-06T12:05:07.212Z,2.15
2022-09-06T12:07:37.691Z,2.60
2022-09-06T12:10:47.178Z,2.60
2022-09-06T12:13:36.810Z,2.67
2022-09-06T12:16:04.650Z,2.08
2022-09-06T12:18:58.219Z,2.47
2022-09-06T12:21:37.783Z,2.75
2022-09-06T12:24:07.904Z,2.00
2022-09-06T12:26:55.320Z,2.30
2022-09-06T12:29:27.657Z,2.40
2022-09-06T12:31:57.849Z,2.60
2022-09-06T12:34:28.115Z,1.80
2022-09-06T12:36:59.640Z,1.92
2022-09-06T12:39:27.813Z,1.60
2022-09-06T12:41:58.136Z,1.80
2022-09-06T12:44:32.961Z,1.63
2022-09-06T12:49:32.085Z,1.67
2022-09-06T12:52:11.849Z,1.58
2022-09-06T12:54:45.803Z,1.75
2022-09-06T12:57:15.839Z,1.90
2022-09-06T12:59:51.383Z,1.67
2022-09-06T13:02:25.056Z,1.67
2022-09-06T13:04:55.965Z,1.77
2022-09-06T13:07:27.020Z,1.40
2022-09-06T13:09:57.368Z,1.48
2022-09-06T13:12:29.470Z,1.88
2022-09-06T13:15:02.377Z,1.70
2022-09-06T13:17:31.062Z,2.10
2022-09-06T13:19:59.829Z,1.50
2022-09-06T13:22:42.867Z,1.50
2022-09-06T13:25:23.604Z,2.15
2022-09-06T13:27:56.444Z,1.58
2022-09-06T13:30:37.745Z,1.83
2022-09-06T13:33:07.734Z,1.95
2022-09-06T13:35:38.956Z,1.63
2022-09-06T13:38:33.875Z,2.15
2022-09-06T13:41:13.551Z,2.05
2022-09-06T13:43:45.843Z,2.00
2022-09-06T13:46:15.103Z,1.80
2022-09-06T13:48:44.413Z,1.80
2022-09-06T13:51:12.832Z,1.63
2022-09-06T13:53:40.629Z,1.60
2022-09-06T13:56:09.007Z,2.40
2022-09-06T13:58:37.273Z,1.70
2022-09-06T14:01:08.486Z,1.80
2022-09-06T14:03:41.492Z,1.55
2022-09-06T14:06:11.392Z,2.00
2022-09-06T14:09:05.407Z,1.83
2022-09-06T14:11:27.374Z,2.60
2022-09-06T14:13:55.237Z,2.55
2022-09-06T14:16:23.092Z,2.08
2022-09-06T14:18:52.941Z,2.00
2022-09-06T14:21:20.801Z,1.80
2022-09-06T14:23:52.084Z,2.17
2022-09-06T14:26:21.054Z,1.50
2022-09-06T14:28:49.778Z,1.80
2022-09-06T14:31:19.410Z,1.40
2022-09-06T14:33:47.683Z,1.50
2022-09-06T14:36:19.299Z,1.90
2022-09-06T14:38:48.089Z,1.48
2022-09-06T14:41:17.937Z,1.60
2022-09-06T14:43:49.020Z,1.65
2022-09-06T14:46:18.996Z,1.60
2022-09-06T14:48:47.439Z,1.55
2022-09-06T14:51:21.726Z,1.70
2022-09-06T14:53:51.285Z,1.35
2022-09-06T14:56:19.630Z,1.50
2022-09-06T14:58:47.593Z,1.60
2022-09-06T15:01:17.076Z,1.70
2022-09-06T15:03:48.450Z,1.85
2022-09-06T15:06:18.622Z,1.55
2022-09-06T15:08:47.764Z,1.50
2022-09-06T15:11:27.468Z,1.50
2022-09-06T15:13:55.267Z,1.52
2022-09-06T15:16:23.124Z,1.35
2022-09-06T15:18:51.045Z,1.88
2022-09-06T15:21:20.220Z,1.80
2022-09-06T15:23:48.116Z,1.88
2022-09-06T15:26:16.456Z,1.73
2022-09-06T15:28:44.788Z,1.88
2022-09-06T15:31:14.604Z,1.75
2022-09-06T15:33:42.807Z,1.52
2022-09-06T15:36:11.939Z,1.73
2022-09-06T15:38:42.721Z,1.90
2022-09-06T15:41:11.980Z,1.83
2022-09-06T15:43:42.048Z,1.63
2022-09-06T15:46:10.064Z,1.50
2022-09-06T15:48:42.903Z,1.60
2022-09-06T15:51:11.846Z,1.60
2022-09-06T15:53:41.396Z,1.60
2022-09-06T15:56:12.349Z,1.70
2022-09-06T15:58:40.489Z,1.40
2022-09-06T16:01:10.486Z,1.50
2022-09-06T16:03:39.805Z,1.77
2022-09-06T16:08:58.310Z,1.63
2022-09-06T16:11:26.915Z,2.10
2022-09-06T16:13:55.127Z,2.65
2022-09-06T16:16:23.505Z,2.15
2022-09-06T16:18:52.045Z,2.70
2022-09-06T16:21:23.786Z,2.58
2022-09-06T16:23:55.773Z,1.88
2022-09-06T16:26:24.987Z,2.33
2022-09-06T16:28:53.678Z,2.05
2022-09-06T16:31:22.776Z,2.30
2022-09-06T16:33:53.568Z,2.03
2022-09-06T16:36:22.704Z,2.30
2022-09-06T16:38:51.193Z,2.38
2022-09-06T16:41:23.815Z,2.30
2022-09-06T16:43:52.649Z,2.20
2022-09-06T16:46:21.309Z,2.00
2022-09-06T16:48:52.209Z,2.30
2022-09-06T16:51:22.843Z,2.80
2022-09-06T16:53:51.908Z,2.22
2022-09-06T16:56:23.144Z,2.45
2022-09-06T16:58:52.899Z,2.58
2022-09-06T17:01:21.313Z,2.40
2022-09-06T17:03:49.696Z,2.28
2022-09-06T17:06:17.930Z,2.53
2022-09-06T17:08:46.201Z,2.95
2022-09-06T17:11:16.616Z,2.45
2022-09-06T17:13:47.900Z,2.35
2022-09-06T17:16:34.658Z,2.63
2022-09-06T17:19:03.132Z,2.42
2022-09-06T17:21:31.259Z,2.72
2022-09-06T17:24:03.023Z,2.75
2022-09-06T17:26:32.218Z,2.70
2022-09-06T17:29:01.575Z,2.55
2022-09-06T17:31:29.956Z,2.85
2022-09-06T17:33:59.540Z,2.53
2022-09-06T17:36:30.338Z,2.50
2022-09-06T17:39:01.755Z,2.83
2022-09-06T17:41:33.938Z,2.80
2022-09-06T17:44:03.432Z,2.72
2022-09-06T17:46:31.742Z,3.20
2022-09-06T17:48:59.758Z,3.05
2022-09-06T17:51:27.915Z,2.33
2022-09-06T17:53:55.804Z,2.88
2022-09-06T17:56:23.984Z,3.35
2022-09-06T17:58:56.512Z,2.78
2022-09-06T18:01:29.254Z,2.78
2022-09-06T18:03:57.949Z,3.03
2022-09-06T18:06:29.703Z,4.35
2022-09-06T18:09:03.317Z,4.25
2022-09-06T18:11:33.905Z,3.85
2022-09-06T18:14:04.659Z,3.28
2022-09-06T18:16:35.807Z,3.35
2022-09-06T18:19:05.439Z,3.05
2022-09-06T18:21:36.612Z,3.38
2022-09-06T18:24:05.278Z,2.83
2022-09-06T18:26:33.388Z,3.00
2022-09-06T18:29:01.391Z,2.97
2022-09-06T18:31:29.606Z,2.90
2022-09-06T18:33:59.727Z,2.85
2022-09-06T18:36:31.969Z,2.97
2022-09-06T18:39:02.598Z,2.75
2022-09-06T18:41:48.292Z,3.15
2022-09-06T18:44:16.518Z,3.30
2022-09-06T18:46:44.608Z,2.45
2022-09-06T18:49:15.391Z,1.80
2022-09-06T18:51:44.566Z,1.67
2022-09-06T18:54:12.744Z,2.05
2022-09-06T18:56:40.963Z,1.70
2022-09-06T18:59:10.723Z,1.63
2022-09-06T19:01:38.923Z,1.50
2022-09-06T19:04:07.981Z,1.77
2022-09-06T19:06:38.430Z,1.33
2022-09-06T19:09:08.612Z,1.73
2022-09-06T19:11:38.279Z,1.70
2022-09-06T19:14:06.404Z,1.90
2022-09-06T19:16:34.816Z,3.05
2022-09-06T19:19:03.949Z,2.15
2022-09-06T19:21:32.602Z,1.90
2022-09-06T19:24:03.512Z,2.10
2022-09-06T19:26:33.807Z,2.15
2022-09-06T19:29:03.612Z,2.80
2022-09-06T19:31:36.455Z,2.28
2022-09-06T19:34:05.010Z,2.15
2022-09-06T19:36:32.924Z,2.10
2022-09-06T19:39:05.381Z,2.00
2022-09-06T19:41:35.039Z,2.60
2022-09-06T19:44:05.342Z,4.43
2022-09-06T19:46:33.429Z,2.45
2022-09-06T19:49:02.110Z,2.92
2022-09-06T19:51:30.219Z,2.90
2022-09-06T19:53:59.736Z,3.05
2022-09-06T19:56:31.568Z,2.80
2022-09-06T19:59:00.899Z,2.75
2022-09-06T20:01:31.114Z,2.40
2022-09-06T20:04:00.057Z,2.80
2022-09-06T20:06:28.084Z,2.20
2022-09-06T20:08:57.528Z,2.78
2022-09-06T20:11:26.878Z,2.60
2022-09-06T20:13:56.447Z,2.53
2022-09-06T20:16:25.625Z,2.70
2022-09-06T20:18:54.735Z,2.95
2022-09-06T20:21:23.299Z,2.95
2022-09-06T20:23:52.608Z,2.70
2022-09-06T20:26:23.602Z,3.35
2022-09-06T20:28:57.953Z,2.70
2022-09-06T20:31:27.146Z,2.72
2022-09-06T20:33:55.133Z,3.20
2022-09-06T20:36:23.139Z,2.65
2022-09-06T20:38:51.356Z,3.63
2022-09-06T20:41:21.325Z,3.25
2022-09-06T20:43:52.952Z,3.65
2022-09-06T20:46:24.019Z,2.92
2022-09-06T20:48:52.688Z,3.47
2022-09-06T20:51:23.333Z,3.92
2022-09-06T20:53:53.930Z,2.95
2022-09-06T20:56:23.679Z,3.20
2022-09-06T20:58:52.851Z,3.40
2022-09-06T21:01:24.848Z,2.63
2022-09-06T21:03:54.270Z,3.22
2022-09-06T21:06:23.235Z,3.28
2022-09-06T21:08:51.855Z,2.63
2022-09-06T21:11:20.731Z,2.83
2022-09-06T21:13:50.784Z,3.05
2022-09-06T21:16:23.865Z,2.75
2022-09-06T21:18:54.579Z,3.08
2022-09-06T21:21:23.361Z,2.65
2022-09-06T21:23:51.262Z,3.55
2022-09-06T21:26:19.243Z,3.38
2022-09-06T21:28:48.604Z,3.83
2022-09-06T21:31:18.282Z,4.18
2022-09-06T21:33:47.453Z,4.18
2022-09-06T21:36:18.702Z,4.10
2022-09-06T21:38:49.027Z,4.30
2022-09-06T21:41:18.883Z,4.53
2022-09-06T21:43:47.283Z,4.82
2022-09-06T21:46:17.347Z,4.65
2022-09-06T21:48:46.877Z,3.63
2022-09-06T21:51:18.595Z,3.20
2022-09-06T21:53:47.772Z,3.67
2022-09-06T21:56:16.399Z,3.60
2022-09-06T21:58:44.841Z,3.00
2022-09-06T22:01:12.769Z,3.15
2022-09-06T22:03:41.003Z,3.03
2022-09-06T22:06:13.242Z,3.20
2022-09-06T22:08:43.665Z,3.35
2022-09-06T22:11:12.399Z,3.33
2022-09-06T22:13:40.767Z,3.30
2022-09-06T22:16:08.976Z,3.03
2022-09-06T22:18:37.866Z,3.25
2022-09-06T22:21:08.561Z,2.83
2022-09-06T22:23:37.064Z,2.85
2022-09-06T22:26:08.647Z,3.20
2022-09-06T22:28:36.957Z,2.75
2022-09-06T22:31:05.309Z,2.92
2022-09-06T22:33:33.612Z,3.20
2022-09-06T22:36:01.813Z,2.88
2022-09-06T22:38:30.548Z,2.78
2022-09-06T22:40:58.683Z,2.78
2022-09-06T22:43:27.917Z,3.00
2022-09-06T22:45:56.020Z,2.78
2022-09-06T22:48:23.882Z,2.90
2022-09-06T22:50:51.793Z,2.95
2022-09-06T22:53:20.797Z,2.88
2022-09-06T22:55:49.372Z,3.22
2022-09-06T22:58:17.209Z,3.72
2022-09-06T23:00:46.430Z,3.17
2022-09-06T23:03:14.309Z,3.47
2022-09-06T23:05:42.626Z,3.13
2022-09-06T23:08:10.757Z,3.70
2022-09-06T23:10:41.599Z,2.92
2022-09-06T23:13:10.418Z,2.90
2022-09-06T23:15:40.605Z,2.40
2022-09-06T23:18:09.983Z,2.28
2022-09-06T23:20:38.212Z,2.70
2022-09-06T23:23:07.410Z,2.83
2022-09-06T23:25:38.657Z,2.42
2022-09-06T23:28:06.985Z,3.15
2022-09-06T23:30:37.665Z,2.42
2022-09-06T23:33:05.781Z,2.38
2022-09-06T23:35:34.972Z,2.65
2022-09-06T23:38:02.860Z,2.75
2022-09-06T23:40:30.836Z,2.13
2022-09-06T23:42:58.657Z,2.30
2022-09-06T23:45:26.665Z,2.08
2022-09-06T23:47:54.507Z,2.20
2022-09-06T23:50:22.387Z,2.97
2022-09-06T23:52:51.563Z,2.20
2022-09-06T23:55:19.419Z,2.45
2022-09-06T23:57:47.243Z,1.90
